Time;durP1;ratioP1;P1;durP2;ratioP2;P2;SDS_P1;SDS_P2;PMS_P1;PMS_P2;Temp;Humidity;BMP_temperature;BMP_pressure;BME280_temperature;BME280_humidity;BME280_pressure;Samples;Min_cycle;Max_cycle;Signal;HPM_P1;HPM_P2
2022/04/13 00:00:48;;;;;;;;;;;12.90;99.90;;;;;;4973498;28;19914;-82
2022/04/13 00:03:14;;;;;;;;;;;12.90;99.90;;;;;;4971594;28;19914;-82
2022/04/13 00:05:39;;;;;;;;;;;12.90;99.90;;;;;;4949746;28;20006;-81
2022/04/13 00:08:07;;;;;;;;;;;12.90;99.90;;;;;;4965487;28;20356;-82
2022/04/13 00:10:34;;;;;;;;;;;12.90;99.90;;;;;;4953713;28;19914;-81
2022/04/13 00:12:59;;;;;;;;;;;12.80;99.90;;;;;;4967556;28;19914;-81
2022/04/13 00:15:25;;;;;;;;;;;12.90;99.90;;;;;;4972384;28;19910;-81
2022/04/13 00:17:51;;;;;;;;;;;12.90;99.90;;;;;;4969826;28;19949;-81
2022/04/13 00:20:16;;;;;;;;;;;12.90;99.90;;;;;;4974612;28;19910;-82
2022/04/13 00:22:42;;;;;;;;;;;12.90;99.90;;;;;;4974451;28;19941;-81
2022/04/13 00:25:08;;;;;;;;;;;13.00;99.90;;;;;;4951926;28;19978;-82
2022/04/13 00:27:33;;;;;;;;;;;12.90;99.90;;;;;;4934895;29;19915;-80
2022/04/13 00:29:59;;;;;;;;;;;12.90;99.90;;;;;;4949785;29;19922;-82
2022/04/13 00:32:25;;;;;;;;;;;12.90;99.90;;;;;;4942378;29;19922;-81
2022/04/13 00:34:51;;;;;;;;;;;12.80;99.90;;;;;;4973931;28;19917;-81
2022/04/13 00:37:16;;;;;;;;;;;12.80;99.90;;;;;;4968034;28;19911;-81
2022/04/13 00:39:43;;;;;;;;;;;12.70;99.90;;;;;;4965340;28;19930;-81
2022/04/13 00:42:09;;;;;;;;;;;12.60;99.90;;;;;;4982799;28;19937;-81
2022/04/13 00:44:36;;;;;;;;;;;12.60;99.90;;;;;;4974619;28;19907;-82
2022/04/13 00:47:03;;;;;;;;;;;12.60;99.90;;;;;;4955546;29;19950;-81
2022/04/13 00:49:29;;;;;;;;;;;12.60;99.90;;;;;;4973276;29;19914;-81
2022/04/13 00:51:58;;;;;;;;;;;12.70;99.90;;;;;;4966708;29;19922;-81
2022/04/13 00:54:24;;;;;;;;;;;12.70;99.90;;;;;;4951763;29;19914;-82
2022/04/13 00:56:52;;;;;;;;;;;12.70;99.90;;;;;;4969372;28;19918;-82
2022/04/13 00:59:18;;;;;;;;;;;12.60;99.90;;;;;;4942395;28;19915;-81
2022/04/13 01:01:48;;;;;;;;;;;12.70;99.90;;;;;;4956117;28;19915;-81
2022/04/13 01:04:13;;;;;;;;;;;12.80;99.90;;;;;;4953264;28;19918;-82
2022/04/13 01:06:40;;;;;;;;;;;12.70;99.90;;;;;;4952275;29;19918;-81
2022/04/13 01:09:05;;;;;;;;;;;12.70;99.90;;;;;;4955536;28;20274;-81
2022/04/13 01:11:31;;;;;;;;;;;12.70;99.90;;;;;;4932181;29;19915;-80
2022/04/13 01:13:57;;;;;;;;;;;12.70;99.90;;;;;;4953972;28;19922;-81
2022/04/13 01:16:23;;;;;;;;;;;12.60;99.90;;;;;;4933175;29;19915;-83
2022/04/13 01:18:50;;;;;;;;;;;12.60;99.90;;;;;;4955885;29;20108;-82
2022/04/13 01:21:19;;;;;;;;;;;12.50;99.90;;;;;;4934306;28;19918;-81
2022/04/13 01:23:44;;;;;;;;;;;12.50;99.90;;;;;;4945810;29;19926;-81
2022/04/13 01:26:10;;;;;;;;;;;12.40;99.90;;;;;;4952329;29;19919;-82
2022/04/13 01:28:37;;;;;;;;;;;12.40;99.90;;;;;;4953952;29;19921;-80
2022/04/13 01:31:03;;;;;;;;;;;12.30;99.90;;;;;;4948771;29;19921;-81
2022/04/13 01:33:28;;;;;;;;;;;12.30;99.90;;;;;;4938079;29;20234;-82
2022/04/13 01:35:56;;;;;;;;;;;12.20;99.90;;;;;;4951932;29;19991;-81
2022/04/13 01:38:21;;;;;;;;;;;12.30;99.90;;;;;;4927284;29;19915;-81
2022/04/13 01:40:49;;;;;;;;;;;12.30;99.90;;;;;;4944922;29;19962;-81
2022/04/13 01:43:15;;;;;;;;;;;12.20;99.90;;;;;;4950207;29;19919;-80
2022/04/13 01:45:40;;;;;;;;;;;12.20;99.90;;;;;;4952957;29;19989;-82
2022/04/13 01:48:08;;;;;;;;;;;12.20;99.90;;;;;;4951930;29;20057;-81
2022/04/13 01:50:34;;;;;;;;;;;12.20;99.90;;;;;;4945027;29;19926;-83
2022/04/13 01:52:59;;;;;;;;;;;12.20;99.90;;;;;;4956230;29;20365;-82
2022/04/13 01:55:25;;;;;;;;;;;12.10;99.90;;;;;;4957316;29;19921;-82
2022/04/13 01:57:50;;;;;;;;;;;12.20;99.90;;;;;;4955358;29;19914;-81
2022/04/13 02:00:16;;;;;;;;;;;12.20;99.90;;;;;;4925033;29;19962;-82
2022/04/13 02:02:42;;;;;;;;;;;12.20;99.90;;;;;;4960252;29;19961;-81
2022/04/13 02:05:09;;;;;;;;;;;12.20;99.90;;;;;;4965067;29;19918;-82
2022/04/13 02:07:35;;;;;;;;;;;12.20;99.90;;;;;;4950284;29;20361;-81
2022/04/13 02:10:01;;;;;;;;;;;12.20;99.90;;;;;;4951378;29;19921;-81
2022/04/13 02:12:27;;;;;;;;;;;12.20;99.90;;;;;;4944470;29;20387;-81
2022/04/13 02:14:53;;;;;;;;;;;12.20;99.90;;;;;;4928102;29;20279;-82
2022/04/13 02:17:19;;;;;;;;;;;12.20;99.90;;;;;;4936942;29;19914;-81
2022/04/13 02:19:45;;;;;;;;;;;12.20;99.90;;;;;;4922284;29;19921;-81
2022/04/13 02:22:12;;;;;;;;;;;12.20;99.90;;;;;;4943639;28;20310;-82
2022/04/13 02:24:40;;;;;;;;;;;12.30;99.90;;;;;;4958630;28;19922;-81
2022/04/13 02:27:09;;;;;;;;;;;12.30;99.90;;;;;;4975345;28;20020;-81
2022/04/13 02:29:38;;;;;;;;;;;12.20;99.90;;;;;;4964731;28;19914;-81
2022/04/13 02:32:04;;;;;;;;;;;12.30;99.90;;;;;;4962670;28;19965;-81
2022/04/13 02:34:29;;;;;;;;;;;12.20;99.90;;;;;;4977324;28;20359;-81
2022/04/13 02:36:56;;;;;;;;;;;12.20;99.90;;;;;;4969262;28;19914;-80
2022/04/13 02:39:22;;;;;;;;;;;12.20;99.90;;;;;;4968338;28;20371;-82
2022/04/13 02:41:48;;;;;;;;;;;12.30;99.90;;;;;;4967554;28;19969;-81
2022/04/13 02:44:13;;;;;;;;;;;12.30;99.90;;;;;;4973952;28;20024;-83
2022/04/13 02:46:39;;;;;;;;;;;12.40;99.90;;;;;;4975399;28;19922;-81
2022/04/13 02:49:05;;;;;;;;;;;12.40;99.90;;;;;;4957819;28;19945;-81
2022/04/13 02:51:31;;;;;;;;;;;12.50;99.90;;;;;;4952579;28;19914;-82
2022/04/13 02:53:56;;;;;;;;;;;12.50;99.90;;;;;;4972444;28;19945;-81
2022/04/13 02:56:22;;;;;;;;;;;12.50;99.90;;;;;;4973060;28;19945;-81
2022/04/13 02:58:47;;;;;;;;;;;12.60;99.90;;;;;;4958221;29;19973;-81
2022/04/13 03:01:13;;;;;;;;;;;12.60;99.90;;;;;;4973484;28;19903;-82
2022/04/13 03:03:38;;;;;;;;;;;12.50;99.90;;;;;;4979192;28;19946;-81
2022/04/13 03:06:04;;;;;;;;;;;12.60;99.90;;;;;;4996258;28;19921;-81
2022/04/13 03:08:30;;;;;;;;;;;12.60;99.90;;;;;;4993058;28;19949;-81
2022/04/13 03:10:55;;;;;;;;;;;12.60;99.90;;;;;;4991012;28;19942;-81
2022/04/13 03:13:21;;;;;;;;;;;12.60;99.90;;;;;;4974791;28;19921;-81
2022/04/13 03:15:46;;;;;;;;;;;12.60;99.90;;;;;;4989208;28;19918;-82
2022/04/13 03:18:12;;;;;;;;;;;12.70;99.90;;;;;;4962597;28;19922;-82
2022/04/13 03:20:37;;;;;;;;;;;12.70;99.90;;;;;;4967685;28;19914;-81
2022/04/13 03:23:03;;;;;;;;;;;12.80;99.90;;;;;;4986138;28;19930;-81
2022/04/13 03:25:29;;;;;;;;;;;12.80;99.90;;;;;;4969730;28;20427;-81
2022/04/13 03:27:55;;;;;;;;;;;12.80;99.90;;;;;;4975006;28;20225;-81
2022/04/13 03:30:22;;;;;;;;;;;12.80;99.90;;;;;;4970905;28;19921;-82
2022/04/13 03:32:48;;;;;;;;;;;12.70;99.90;;;;;;4951994;28;19937;-81
2022/04/13 03:35:14;;;;;;;;;;;12.70;99.90;;;;;;4943378;29;19914;-81
2022/04/13 03:37:40;;;;;;;;;;;12.80;99.90;;;;;;4968883;28;20311;-82
2022/04/13 03:40:06;;;;;;;;;;;12.80;99.90;;;;;;4973524;28;20406;-81
2022/04/13 03:42:35;;;;;;;;;;;12.80;99.90;;;;;;4972797;28;20001;-81
2022/04/13 03:45:06;;;;;;;;;;;12.80;99.90;;;;;;4959935;28;20406;-82
2022/04/13 03:47:32;;;;;;;;;;;12.90;99.90;;;;;;4972743;28;20001;-82
2022/04/13 03:49:58;;;;;;;;;;;12.90;99.90;;;;;;4974113;28;19961;-81
2022/04/13 03:52:24;;;;;;;;;;;12.90;99.90;;;;;;4956605;28;20438;-81
2022/04/13 03:54:49;;;;;;;;;;;12.90;99.90;;;;;;4952004;28;19914;-82
2022/04/13 03:57:15;;;;;;;;;;;12.90;99.90;;;;;;4972475;28;20324;-82
2022/04/13 03:59:40;;;;;;;;;;;12.90;99.90;;;;;;4969885;28;20292;-82
2022/04/13 04:02:06;;;;;;;;;;;12.90;99.90;;;;;;4972815;28;19914;-81
2022/04/13 04:04:31;;;;;;;;;;;12.80;99.90;;;;;;4970923;28;19969;-82
2022/04/13 04:06:57;;;;;;;;;;;12.80;99.90;;;;;;4973051;28;19918;-82
2022/04/13 04:09:23;;;;;;;;;;;12.80;99.90;;;;;;4971039;28;19946;-82
2022/04/13 04:11:49;;;;;;;;;;;12.90;99.90;;;;;;4967661;28;20264;-82
2022/04/13 04:14:15;;;;;;;;;;;12.90;99.90;;;;;;4971668;28;19914;-81
2022/04/13 04:16:40;;;;;;;;;;;12.90;99.90;;;;;;4963976;28;19914;-81
2022/04/13 04:19:06;;;;;;;;;;;12.80;99.90;;;;;;4973229;28;19914;-83
2022/04/13 04:21:32;;;;;;;;;;;12.80;99.90;;;;;;4963573;28;20380;-81
2022/04/13 04:23:57;;;;;;;;;;;12.80;99.90;;;;;;4961841;28;20013;-82
2022/04/13 04:26:23;;;;;;;;;;;12.70;99.90;;;;;;4954483;28;19922;-81
2022/04/13 04:28:48;;;;;;;;;;;12.70;99.90;;;;;;4952285;28;19919;-81
2022/04/13 04:31:19;;;;;;;;;;;12.70;99.90;;;;;;4973008;28;20252;-82
2022/04/13 04:33:45;;;;;;;;;;;12.70;99.90;;;;;;4968462;28;19914;-82
2022/04/13 04:36:10;;;;;;;;;;;12.60;99.90;;;;;;4964399;28;20240;-82
2022/04/13 04:38:37;;;;;;;;;;;12.60;99.90;;;;;;4948552;28;19928;-82
2022/04/13 04:41:03;;;;;;;;;;;12.60;99.90;;;;;;4969730;28;19969;-82
2022/04/13 04:43:29;;;;;;;;;;;12.60;99.90;;;;;;4979163;28;19966;-82
2022/04/13 04:45:54;;;;;;;;;;;12.70;99.90;;;;;;4967049;28;19918;-81
2022/04/13 04:48:20;;;;;;;;;;;12.60;99.90;;;;;;4970819;28;19977;-82
2022/04/13 04:50:45;;;;;;;;;;;12.60;99.90;;;;;;4985566;28;19914;-82
2022/04/13 04:53:11;;;;;;;;;;;12.60;99.90;;;;;;4963318;28;19914;-82
2022/04/13 04:55:37;;;;;;;;;;;12.60;99.90;;;;;;4969297;28;20346;-83
2022/04/13 04:58:03;;;;;;;;;;;12.70;99.90;;;;;;4961437;28;19933;-81
2022/04/13 05:00:30;;;;;;;;;;;12.70;99.90;;;;;;4976485;28;19921;-83
2022/04/13 05:02:56;;;;;;;;;;;12.60;99.90;;;;;;4951348;28;19918;-82
2022/04/13 05:05:21;;;;;;;;;;;12.60;99.90;;;;;;4968155;28;19941;-82
2022/04/13 05:07:47;;;;;;;;;;;12.70;99.90;;;;;;4975224;28;19914;-82
2022/04/13 05:10:13;;;;;;;;;;;12.60;99.90;;;;;;4953928;28;19925;-82
2022/04/13 05:12:43;;;;;;;;;;;12.70;99.90;;;;;;4955803;28;19914;-81
2022/04/13 05:15:09;;;;;;;;;;;12.70;99.90;;;;;;4968123;28;20295;-83
2022/04/13 05:17:37;;;;;;;;;;;12.70;99.90;;;;;;4970086;28;19914;-83
2022/04/13 05:20:06;;;;;;;;;;;12.70;99.90;;;;;;4946185;28;19921;-82
2022/04/13 05:22:32;;;;;;;;;;;12.60;99.90;;;;;;4965350;28;19922;-81
2022/04/13 05:25:16;;;;;;;;;;;12.60;99.90;;;;;;4963117;28;19993;-82
2022/04/13 05:27:42;;;;;;;;;;;12.60;99.90;;;;;;4963271;28;20362;-82
2022/04/13 05:30:08;;;;;;;;;;;12.50;99.90;;;;;;4954055;28;19922;-82
2022/04/13 05:32:47;;;;;;;;;;;12.50;99.90;;;;;;4979285;28;19915;-82
2022/04/13 05:35:12;;;;;;;;;;;12.50;99.90;;;;;;4978657;28;19902;-82
2022/04/13 05:37:38;;;;;;;;;;;12.50;99.90;;;;;;4984333;28;20311;-80
2022/04/13 05:40:04;;;;;;;;;;;12.50;99.90;;;;;;4981030;28;19914;-82
2022/04/13 05:42:30;;;;;;;;;;;12.50;99.90;;;;;;4961861;28;19914;-82
2022/04/13 05:44:57;;;;;;;;;;;12.50;99.90;;;;;;4970073;28;19973;-82
2022/04/13 05:47:22;;;;;;;;;;;12.60;99.90;;;;;;4967430;28;19922;-82
2022/04/13 05:49:48;;;;;;;;;;;12.70;99.90;;;;;;4955660;28;19921;-82
2022/04/13 05:52:13;;;;;;;;;;;12.70;99.90;;;;;;4967451;28;19914;-81
2022/04/13 05:54:39;;;;;;;;;;;12.80;99.90;;;;;;4949471;28;19914;-83
2022/04/13 05:57:05;;;;;;;;;;;12.70;99.90;;;;;;4977628;28;19902;-81
2022/04/13 05:59:30;;;;;;;;;;;12.70;99.90;;;;;;4981640;28;20399;-81
2022/04/13 06:01:56;;;;;;;;;;;12.80;99.90;;;;;;4970679;28;19925;-82
2022/04/13 06:04:23;;;;;;;;;;;12.80;99.90;;;;;;4948052;28;20420;-82
2022/04/13 06:06:49;;;;;;;;;;;12.80;99.90;;;;;;4969546;28;20008;-83
2022/04/13 06:09:14;;;;;;;;;;;12.80;99.90;;;;;;4972746;28;19957;-81
2022/04/13 06:11:40;;;;;;;;;;;12.80;99.90;;;;;;4969398;28;19914;-82
2022/04/13 06:14:05;;;;;;;;;;;12.90;99.90;;;;;;4960528;28;20328;-81
2022/04/13 06:16:31;;;;;;;;;;;12.90;99.90;;;;;;4976344;28;21157;-82
2022/04/13 06:18:56;;;;;;;;;;;13.00;99.90;;;;;;4977029;28;20320;-83
2022/04/13 06:21:22;;;;;;;;;;;13.00;99.90;;;;;;4972948;28;19914;-83
2022/04/13 06:23:47;;;;;;;;;;;13.10;99.90;;;;;;4970085;28;19969;-82
2022/04/13 06:26:13;;;;;;;;;;;13.10;99.90;;;;;;4972006;28;19982;-82
2022/04/13 06:28:39;;;;;;;;;;;13.10;99.90;;;;;;4964311;28;19914;-80
2022/04/13 06:31:04;;;;;;;;;;;13.10;99.90;;;;;;4972124;28;20016;-82
2022/04/13 06:33:30;;;;;;;;;;;13.00;99.90;;;;;;4960154;28;20023;-82
2022/04/13 06:35:55;;;;;;;;;;;13.00;99.90;;;;;;4958426;28;19974;-82
2022/04/13 06:38:21;;;;;;;;;;;13.10;99.90;;;;;;4968903;28;19919;-82
2022/04/13 06:40:46;;;;;;;;;;;13.10;99.90;;;;;;4962856;28;20359;-82
2022/04/13 06:43:12;;;;;;;;;;;13.10;99.90;;;;;;4949839;28;20285;-82
2022/04/13 06:45:37;;;;;;;;;;;13.20;99.90;;;;;;4954081;28;19918;-82
2022/04/13 06:48:07;;;;;;;;;;;13.20;99.90;;;;;;4966985;28;20001;-82
2022/04/13 06:50:34;;;;;;;;;;;13.30;99.90;;;;;;4955242;28;19914;-80
2022/04/13 06:53:00;;;;;;;;;;;13.30;99.90;;;;;;4955021;28;19914;-82
2022/04/13 06:55:29;;;;;;;;;;;13.40;99.90;;;;;;4965933;28;19914;-81
2022/04/13 06:57:55;;;;;;;;;;;13.50;99.90;;;;;;4963266;28;19918;-82
2022/04/13 07:00:21;;;;;;;;;;;13.60;99.90;;;;;;4948945;28;19921;-83
2022/04/13 07:02:48;;;;;;;;;;;13.80;99.90;;;;;;4971248;28;20008;-82
2022/04/13 07:05:13;;;;;;;;;;;13.80;99.90;;;;;;4975393;28;19915;-83
2022/04/13 07:07:39;;;;;;;;;;;13.80;99.90;;;;;;4956324;29;19965;-82
2022/04/13 07:10:08;;;;;;;;;;;13.80;99.90;;;;;;4975864;28;19920;-83
2022/04/13 07:12:39;;;;;;;;;;;13.70;99.90;;;;;;4953751;28;19914;-83
2022/04/13 07:15:05;;;;;;;;;;;13.80;99.90;;;;;;4974132;28;19928;-80
2022/04/13 07:17:30;;;;;;;;;;;13.80;99.90;;;;;;4968595;28;20008;-83
2022/04/13 07:19:56;;;;;;;;;;;13.80;99.90;;;;;;4956646;28;19941;-83
2022/04/13 07:22:22;;;;;;;;;;;13.80;99.90;;;;;;4954910;28;19967;-82
2022/04/13 07:24:47;;;;;;;;;;;13.80;99.90;;;;;;4960805;28;20364;-82
2022/04/13 07:27:13;;;;;;;;;;;13.80;99.90;;;;;;4961690;28;19921;-82
2022/04/13 07:29:38;;;;;;;;;;;14.10;99.90;;;;;;4980755;28;19918;-82
2022/04/13 07:32:06;;;;;;;;;;;14.20;99.90;;;;;;4971603;28;19961;-82
2022/04/13 07:34:32;;;;;;;;;;;14.00;99.90;;;;;;4973223;28;19914;-82
2022/04/13 07:36:58;;;;;;;;;;;14.00;99.90;;;;;;4958063;28;19926;-82
2022/04/13 07:39:24;;;;;;;;;;;13.90;99.90;;;;;;4977852;28;19984;-81
2022/04/13 07:41:50;;;;;;;;;;;13.80;99.90;;;;;;4962879;28;19914;-80
2022/04/13 07:44:16;;;;;;;;;;;13.90;99.90;;;;;;4956743;28;19948;-82
2022/04/13 07:46:41;;;;;;;;;;;13.90;99.90;;;;;;4980199;28;19915;-82
2022/04/13 07:49:08;;;;;;;;;;;13.90;99.90;;;;;;4982033;28;19993;-82
2022/04/13 07:51:35;;;;;;;;;;;13.90;99.90;;;;;;4980974;28;19914;-82
2022/04/13 07:54:04;;;;;;;;;;;13.80;99.90;;;;;;4980862;28;19953;-82
2022/04/13 07:56:29;;;;;;;;;;;13.90;99.90;;;;;;4974985;28;19964;-82
2022/04/13 07:58:55;;;;;;;;;;;14.00;99.90;;;;;;4977233;28;19914;-81
2022/04/13 08:01:20;;;;;;;;;;;14.10;99.90;;;;;;4986138;28;19929;-82
2022/04/13 08:03:46;;;;;;;;;;;14.10;99.90;;;;;;4987658;28;19918;-83
2022/04/13 08:06:15;;;;;;;;;;;14.20;99.90;;;;;;4981928;28;19914;-84
2022/04/13 08:08:40;;;;;;;;;;;14.50;99.90;;;;;;4968065;28;19915;-84
2022/04/13 08:11:06;;;;;;;;;;;14.50;99.90;;;;;;4971487;28;20009;-82
2022/04/13 08:13:33;;;;;;;;;;;14.60;99.90;;;;;;4956990;28;19915;-84
2022/04/13 08:15:59;;;;;;;;;;;14.70;99.90;;;;;;4974667;28;20356;-83
2022/04/13 08:18:24;;;;;;;;;;;14.90;99.90;;;;;;4976147;28;19925;-84
2022/04/13 08:20:50;;;;;;;;;;;14.80;99.90;;;;;;4951160;28;19929;-82
2022/04/13 08:23:16;;;;;;;;;;;14.70;99.90;;;;;;4969689;28;20408;-82
2022/04/13 08:25:41;;;;;;;;;;;14.90;99.90;;;;;;4971036;28;19914;-82
2022/04/13 08:28:07;;;;;;;;;;;15.10;99.90;;;;;;4974544;28;19914;-82
2022/04/13 08:30:33;;;;;;;;;;;15.20;99.90;;;;;;4974212;28;19926;-83
2022/04/13 08:32:58;;;;;;;;;;;15.30;99.90;;;;;;4983544;28;19968;-82
2022/04/13 08:35:24;;;;;;;;;;;15.30;99.90;;;;;;4962667;28;20028;-82
2022/04/13 08:37:50;;;;;;;;;;;15.30;99.90;;;;;;4964674;28;19915;-81
2022/04/13 08:40:17;;;;;;;;;;;15.40;99.90;;;;;;4973561;28;20252;-82
2022/04/13 08:42:50;;;;;;;;;;;15.60;99.90;;;;;;4961018;28;19978;-82
2022/04/13 08:45:23;;;;;;;;;;;15.70;99.90;;;;;;4975150;28;19969;-83
2022/04/13 08:47:50;;;;;;;;;;;15.90;99.90;;;;;;4971035;28;19958;-81
2022/04/13 08:50:17;;;;;;;;;;;16.00;99.90;;;;;;4978014;28;19925;-83
2022/04/13 08:52:48;;;;;;;;;;;16.10;99.90;;;;;;4954253;28;19928;-82
2022/04/13 08:55:16;;;;;;;;;;;15.80;99.90;;;;;;4953721;28;19915;-82
2022/04/13 08:57:54;;;;;;;;;;;15.70;99.90;;;;;;4963950;28;19910;-82
2022/04/13 09:00:21;;;;;;;;;;;15.70;99.90;;;;;;4987741;28;19938;-83
2022/04/13 09:02:47;;;;;;;;;;;15.60;99.90;;;;;;4993483;28;19925;-82
2022/04/13 09:05:27;;;;;;;;;;;15.40;99.90;;;;;;4978696;28;19914;-83
2022/04/13 09:08:05;;;;;;;;;;;15.40;99.90;;;;;;4964013;28;19992;-82
2022/04/13 09:10:31;;;;;;;;;;;15.40;99.90;;;;;;4975431;28;19945;-82
2022/04/13 09:12:58;;;;;;;;;;;15.40;99.90;;;;;;4969896;28;20647;-82
2022/04/13 09:15:24;;;;;;;;;;;15.50;99.90;;;;;;4975968;28;19914;-80
2022/04/13 09:17:50;;;;;;;;;;;15.70;99.90;;;;;;4963758;28;20162;-81
2022/04/13 09:20:16;;;;;;;;;;;15.70;99.90;;;;;;4974086;28;20013;-82
2022/04/13 09:22:44;;;;;;;;;;;15.80;99.90;;;;;;4974932;28;20017;-81
2022/04/13 09:25:10;;;;;;;;;;;15.80;99.90;;;;;;4971649;28;20428;-81
2022/04/13 09:27:38;;;;;;;;;;;15.90;99.90;;;;;;4975837;28;19910;-82
2022/04/13 09:30:05;;;;;;;;;;;16.20;99.90;;;;;;4965225;28;19972;-81
2022/04/13 09:32:31;;;;;;;;;;;16.40;99.90;;;;;;4952846;28;19917;-82
2022/04/13 09:34:57;;;;;;;;;;;16.70;99.90;;;;;;4969486;28;19936;-82
2022/04/13 09:37:22;;;;;;;;;;;16.80;99.90;;;;;;4975025;28;20393;-81
2022/04/13 09:39:48;;;;;;;;;;;16.90;99.90;;;;;;4972263;28;19914;-81
2022/04/13 09:42:16;;;;;;;;;;;16.70;99.90;;;;;;4974850;28;19961;-81
2022/04/13 09:44:42;;;;;;;;;;;16.70;99.90;;;;;;4973802;28;19918;-82
2022/04/13 09:47:12;;;;;;;;;;;16.70;99.90;;;;;;4956460;28;19948;-83
2022/04/13 09:49:45;;;;;;;;;;;16.80;99.90;;;;;;4948050;28;20001;-82
2022/04/13 09:52:10;;;;;;;;;;;16.80;99.90;;;;;;4977306;28;19964;-82
2022/04/13 09:54:42;;;;;;;;;;;16.80;99.90;;;;;;4972971;28;19959;-82
2022/04/13 09:57:07;;;;;;;;;;;16.90;99.90;;;;;;4941769;28;19915;-83
2022/04/13 09:59:33;;;;;;;;;;;17.10;99.90;;;;;;4960869;28;19929;-81
2022/04/13 10:01:59;;;;;;;;;;;17.30;99.90;;;;;;4951840;28;19914;-82
2022/04/13 10:04:28;;;;;;;;;;;17.30;99.90;;;;;;4965522;28;19937;-81
2022/04/13 10:06:54;;;;;;;;;;;17.10;99.90;;;;;;4966618;28;19941;-83
2022/04/13 10:09:22;;;;;;;;;;;17.00;99.90;;;;;;4969933;28;20352;-81
2022/04/13 10:12:01;;;;;;;;;;;17.00;99.90;;;;;;4966215;28;19914;-82
2022/04/13 10:14:27;;;;;;;;;;;17.30;99.90;;;;;;4971057;28;20267;-82
2022/04/13 10:16:53;;;;;;;;;;;17.10;99.90;;;;;;4964125;28;20001;-82
2022/04/13 10:19:19;;;;;;;;;;;17.00;99.90;;;;;;4961103;28;19923;-82
2022/04/13 10:21:52;;;;;;;;;;;17.10;99.90;;;;;;4968704;28;20291;-82
2022/04/13 10:24:30;;;;;;;;;;;16.90;99.90;;;;;;4945133;29;19923;-82
2022/04/13 10:27:12;;;;;;;;;;;16.80;99.90;;;;;;4966726;28;19980;-82
2022/04/13 10:29:38;;;;;;;;;;;16.90;99.90;;;;;;4991246;28;20233;-82
2022/04/13 10:32:10;;;;;;;;;;;17.00;99.90;;;;;;4975573;28;20167;-82
2022/04/13 10:34:37;;;;;;;;;;;17.00;99.90;;;;;;4969949;28;19957;-82
2022/04/13 10:37:04;;;;;;;;;;;16.90;99.90;;;;;;4981399;28;19936;-82
2022/04/13 10:39:30;;;;;;;;;;;16.80;99.90;;;;;;4976236;28;19914;-82
2022/04/13 10:41:56;;;;;;;;;;;16.90;99.90;;;;;;4963896;28;19921;-81
2022/04/13 10:44:32;;;;;;;;;;;16.90;99.90;;;;;;4959754;28;19958;-82
2022/04/13 10:47:00;;;;;;;;;;;16.80;99.90;;;;;;4956044;28;20485;-83
2022/04/13 10:49:28;;;;;;;;;;;16.70;99.90;;;;;;4985824;28;19920;-82
2022/04/13 10:51:56;;;;;;;;;;;16.80;99.90;;;;;;4987267;28;19914;-82
2022/04/13 10:54:24;;;;;;;;;;;16.90;99.90;;;;;;4958199;28;19930;-82
2022/04/13 10:56:56;;;;;;;;;;;16.80;99.90;;;;;;4964767;28;19918;-82
2022/04/13 10:59:24;;;;;;;;;;;17.00;99.90;;;;;;4988031;28;19929;-82
2022/04/13 11:02:05;;;;;;;;;;;17.10;99.90;;;;;;4980424;28;19915;-81
2022/04/13 11:04:33;;;;;;;;;;;17.30;99.90;;;;;;4982721;28;19937;-82
2022/04/13 11:07:02;;;;;;;;;;;17.50;99.90;;;;;;4982051;28;19983;-82
2022/04/13 11:09:38;;;;;;;;;;;17.50;99.90;;;;;;4988577;28;19949;-81
2022/04/13 11:12:04;;;;;;;;;;;17.20;99.90;;;;;;4976952;28;19915;-82
2022/04/13 11:14:29;;;;;;;;;;;17.00;99.90;;;;;;4976219;28;20017;-82
2022/04/13 11:17:07;;;;;;;;;;;16.90;99.90;;;;;;4979194;28;19957;-81
2022/04/13 11:19:33;;;;;;;;;;;16.90;99.90;;;;;;4979285;28;19914;-82
2022/04/13 11:21:58;;;;;;;;;;;17.20;99.90;;;;;;4969060;28;19914;-81
2022/04/13 11:24:34;;;;;;;;;;;17.40;99.90;;;;;;4984914;28;20048;-82
2022/04/13 11:27:00;;;;;;;;;;;17.30;99.90;;;;;;4979024;28;19914;-82
2022/04/13 11:29:33;;;;;;;;;;;17.40;99.90;;;;;;4983055;28;19925;-80
2022/04/13 11:32:02;;;;;;;;;;;17.30;99.90;;;;;;4973906;28;19942;-82
2022/04/13 11:34:28;;;;;;;;;;;17.10;99.90;;;;;;4963814;28;19914;-82
2022/04/13 11:36:57;;;;;;;;;;;16.90;99.90;;;;;;4972874;28;20397;-81
2022/04/13 11:39:41;;;;;;;;;;;17.00;99.90;;;;;;4983136;28;19915;-80
2022/04/13 11:42:13;;;;;;;;;;;16.90;99.90;;;;;;4975880;28;19933;-82
2022/04/13 11:44:48;;;;;;;;;;;16.90;99.90;;;;;;4976789;28;19933;-81
2022/04/13 11:47:18;;;;;;;;;;;17.00;99.90;;;;;;4985241;28;19918;-83
2022/04/13 11:49:59;;;;;;;;;;;17.20;99.90;;;;;;4986055;28;19918;-83
2022/04/13 11:52:41;;;;;;;;;;;17.20;99.90;;;;;;4977395;28;19915;-83
2022/04/13 11:55:19;;;;;;;;;;;17.10;99.90;;;;;;4983381;28;19921;-84
2022/04/13 11:58:00;;;;;;;;;;;17.00;99.90;;;;;;4980463;28;19914;-81
2022/04/13 12:00:41;;;;;;;;;;;16.90;99.90;;;;;;4980028;28;19971;-83
2022/04/13 12:03:17;;;;;;;;;;;16.80;99.90;;;;;;4964630;28;19949;-84
2022/04/13 12:05:44;;;;;;;;;;;16.90;99.90;;;;;;4984102;28;19918;-83
2022/04/13 12:08:10;;;;;;;;;;;16.90;99.90;;;;;;4988647;28;19925;-82
2022/04/13 12:10:36;;;;;;;;;;;16.90;99.90;;;;;;4978924;28;19922;-84
2022/04/13 12:13:03;;;;;;;;;;;17.10;99.90;;;;;;4967303;28;19925;-82
2022/04/13 12:15:42;;;;;;;;;;;17.10;99.90;;;;;;4968390;28;19918;-83
2022/04/13 12:18:09;;;;;;;;;;;17.30;99.90;;;;;;4983081;28;19925;-82
2022/04/13 12:20:35;;;;;;;;;;;17.10;99.90;;;;;;4956169;28;20380;-82
2022/04/13 12:23:13;;;;;;;;;;;17.30;99.90;;;;;;4975354;28;19930;-82
2022/04/13 12:25:42;;;;;;;;;;;17.40;99.90;;;;;;4984743;28;20003;-84
2022/04/13 12:28:08;;;;;;;;;;;17.40;99.90;;;;;;4985893;28;20013;-83
2022/04/13 12:30:34;;;;;;;;;;;17.30;99.90;;;;;;4960271;28;20005;-82
2022/04/13 12:33:10;;;;;;;;;;;17.10;99.90;;;;;;4973961;28;19976;-83
2022/04/13 12:35:46;;;;;;;;;;;17.10;99.90;;;;;;4969956;28;19922;-83
2022/04/13 12:38:20;;;;;;;;;;;16.90;99.90;;;;;;4966535;28;19922;-83
2022/04/13 12:40:46;;;;;;;;;;;16.90;99.90;;;;;;4954207;28;19922;-82
2022/04/13 12:43:23;;;;;;;;;;;16.80;99.90;;;;;;4984915;28;19929;-84
2022/04/13 12:45:49;;;;;;;;;;;16.80;99.90;;;;;;4977569;28;19935;-82
2022/04/13 12:48:15;;;;;;;;;;;16.90;99.90;;;;;;4972267;28;19918;-83
2022/04/13 12:50:54;;;;;;;;;;;17.00;99.90;;;;;;4969132;28;19921;-84
2022/04/13 12:53:19;;;;;;;;;;;17.20;99.90;;;;;;4976676;28;19915;-83
2022/04/13 12:56:00;;;;;;;;;;;17.50;99.90;;;;;;4969237;28;19964;-82
2022/04/13 12:58:25;;;;;;;;;;;17.80;99.90;;;;;;4988396;28;19976;-85
2022/04/13 13:00:52;;;;;;;;;;;17.90;99.90;;;;;;4984694;28;19945;-83
2022/04/13 13:03:18;;;;;;;;;;;18.00;99.90;;;;;;4969945;28;19990;-82
2022/04/13 13:05:44;;;;;;;;;;;18.00;99.90;;;;;;4959082;28;20255;-83
2022/04/13 13:08:10;;;;;;;;;;;18.20;99.90;;;;;;4961068;28;19942;-83
2022/04/13 13:10:36;;;;;;;;;;;18.20;99.90;;;;;;4991794;28;19934;-82
2022/04/13 13:13:18;;;;;;;;;;;18.00;99.90;;;;;;4989177;28;19915;-83
2022/04/13 13:15:44;;;;;;;;;;;18.20;99.90;;;;;;4977568;28;19914;-84
2022/04/13 13:18:10;;;;;;;;;;;18.20;99.90;;;;;;4972462;28;20375;-83
2022/04/13 13:20:51;;;;;;;;;;;18.20;99.90;;;;;;4950879;29;19958;-83
2022/04/13 13:23:21;;;;;;;;;;;18.10;99.90;;;;;;4965407;28;19933;-83
2022/04/13 13:25:47;;;;;;;;;;;18.20;99.90;;;;;;4948707;28;19924;-82
2022/04/13 13:28:12;;;;;;;;;;;18.30;99.90;;;;;;4972635;28;20303;-82
2022/04/13 13:30:45;;;;;;;;;;;18.50;99.90;;;;;;4950113;29;19918;-81
2022/04/13 13:33:12;;;;;;;;;;;18.70;99.90;;;;;;4948071;28;19921;-83
2022/04/13 13:35:38;;;;;;;;;;;18.70;99.90;;;;;;4963508;28;19976;-82
2022/04/13 13:38:04;;;;;;;;;;;18.70;99.90;;;;;;4947141;29;19966;-83
2022/04/13 13:40:36;;;;;;;;;;;18.80;99.90;;;;;;4972033;28;19922;-82
2022/04/13 13:43:30;;;;;;;;;;;18.60;99.90;;;;;;4955657;28;19942;-83
2022/04/13 13:45:56;;;;;;;;;;;18.40;99.90;;;;;;4977689;28;19918;-83
2022/04/13 13:48:25;;;;;;;;;;;18.60;99.90;;;;;;4973105;28;19921;-83
2022/04/13 13:50:53;;;;;;;;;;;18.80;99.90;;;;;;4975396;28;20041;-82
2022/04/13 13:53:20;;;;;;;;;;;19.00;99.90;;;;;;4973177;28;20451;-85
2022/04/13 13:55:46;;;;;;;;;;;19.30;99.90;;;;;;4976185;28;19925;-85
2022/04/13 13:58:12;;;;;;;;;;;19.70;99.90;;;;;;4975338;28;19914;-84
2022/04/13 14:00:38;;;;;;;;;;;19.70;99.90;;;;;;4951598;29;20395;-84
2022/04/13 14:03:04;;;;;;;;;;;19.50;99.90;;;;;;4975131;28;19962;-84
2022/04/13 14:05:30;;;;;;;;;;;19.40;99.90;;;;;;4973885;28;19926;-82
2022/04/13 14:07:56;;;;;;;;;;;19.40;99.90;;;;;;4978608;28;19936;-82
2022/04/13 14:10:22;;;;;;;;;;;19.40;99.90;;;;;;4941614;28;19977;-83
2022/04/13 14:12:48;;;;;;;;;;;19.30;99.90;;;;;;4975538;28;20023;-84
2022/04/13 14:15:14;;;;;;;;;;;18.80;99.90;;;;;;4974214;28;19914;-83
2022/04/13 14:17:41;;;;;;;;;;;18.60;99.90;;;;;;4978205;28;19957;-84